createdAt,value
2023-03-18T00:04:50.105Z,39
2023-03-18T00:09:50.180Z,39
2023-03-18T00:14:50.074Z,40
2023-03-18T00:19:50.072Z,41
2023-03-18T00:24:50.016Z,41
2023-03-18T00:29:50.090Z,41
2023-03-18T00:34:50.158Z,42
2023-03-18T00:39:49.944Z,43
2023-03-18T00:44:50.421Z,43
2023-03-18T00:49:50.115Z,43
2023-03-18T00:54:50.189Z,43
2023-03-18T00:59:49.989Z,43
2023-03-18T01:04:50.465Z,43
2023-03-18T01:09:49.929Z,43
2023-03-18T01:14:50.237Z,44
2023-03-18T01:19:49.943Z,43
2023-03-18T01:24:49.926Z,44
2023-03-18T01:29:49.851Z,45
2023-03-18T01:34:50.143Z,45
2023-03-18T01:39:50.265Z,45
2023-03-18T01:45:07.882Z,46
2023-03-18T01:49:50.110Z,47
2023-03-18T01:54:49.847Z,47
2023-03-18T01:59:49.924Z,47
2023-03-18T02:04:49.928Z,48
2023-03-18T02:09:50.068Z,48
2023-03-18T02:14:51.202Z,49
2023-03-18T02:19:49.981Z,49
2023-03-18T02:24:50.035Z,51
2023-03-18T02:29:49.954Z,51
2023-03-18T02:34:50.092Z,51
2023-03-18T02:39:49.830Z,52
2023-03-18T02:44:50.050Z,53
2023-03-18T02:49:50.353Z,53
2023-03-18T02:54:50.025Z,54
2023-03-18T02:59:50.260Z,54
2023-03-18T03:04:49.807Z,55
2023-03-18T03:09:50.216Z,55
2023-03-18T03:14:50.301Z,55
2023-03-18T03:19:50.234Z,55
2023-03-18T03:24:49.940Z,55
2023-03-18T03:29:50.124Z,55
2023-03-18T03:34:49.802Z,55
2023-03-18T03:39:49.948Z,55
2023-03-18T03:44:49.897Z,54
2023-03-18T03:49:49.806Z,54
2023-03-18T03:54:49.711Z,54
2023-03-18T03:59:49.940Z,54
2023-03-18T04:04:49.784Z,55
2023-03-18T04:09:50.165Z,55
2023-03-18T04:14:51.750Z,55
2023-03-18T04:19:49.982Z,55
2023-03-18T04:24:49.977Z,56
2023-03-18T04:29:49.832Z,56
2023-03-18T04:34:49.884Z,56
2023-03-18T04:39:50.008Z,57
2023-03-18T04:44:49.890Z,56
2023-03-18T04:49:49.706Z,56
2023-03-18T04:54:50.040Z,57
2023-03-18T04:59:49.899Z,57
2023-03-18T05:04:49.819Z,57
2023-03-18T05:09:50.221Z,57
2023-03-18T05:14:49.800Z,56
2023-03-18T05:19:49.810Z,56
2023-03-18T05:24:49.928Z,56
2023-03-18T05:29:50.013Z,57
2023-03-18T05:34:50.030Z,57
2023-03-18T05:39:50.027Z,57
2023-03-18T05:44:50.046Z,56
2023-03-18T05:49:49.902Z,56
2023-03-18T05:54:49.924Z,56
2023-03-18T05:59:49.848Z,56
2023-03-18T06:04:49.816Z,56
2023-03-18T06:09:50.157Z,56
2023-03-18T06:14:49.772Z,56
2023-03-18T06:19:49.821Z,56
2023-03-18T06:24:49.722Z,57
2023-03-18T06:29:49.790Z,56
2023-03-18T06:34:49.720Z,57
2023-03-18T06:39:50.046Z,56
2023-03-18T06:44:49.713Z,57
2023-03-18T06:49:49.912Z,57
2023-03-18T06:54:49.826Z,56
2023-03-18T06:59:49.644Z,56
2023-03-18T07:04:49.895Z,55
2023-03-18T07:09:49.636Z,55
2023-03-18T07:14:49.786Z,54
2023-03-18T07:19:50.029Z,54
2023-03-18T07:24:49.548Z,53
2023-03-18T07:29:50.123Z,53
2023-03-18T07:34:49.858Z,53
2023-03-18T07:39:50.165Z,53
2023-03-18T07:44:49.770Z,54
2023-03-18T07:49:50.493Z,54
2023-03-18T07:54:49.519Z,54
2023-03-18T07:59:49.602Z,54
2023-03-18T08:04:49.801Z,54
2023-03-18T08:09:49.653Z,54
2023-03-18T08:14:49.569Z,54
2023-03-18T08:19:49.638Z,54
2023-03-18T08:24:49.531Z,54
2023-03-18T08:29:49.816Z,54
2023-03-18T08:34:49.572Z,53
2023-03-18T08:39:49.717Z,52
2023-03-18T08:44:49.695Z,50
2023-03-18T08:49:51.374Z,50
2023-03-18T08:54:49.482Z,49
2023-03-18T08:59:49.604Z,49
2023-03-18T09:04:49.821Z,49
2023-03-18T09:09:49.709Z,49
2023-03-18T09:14:49.569Z,49
2023-03-18T09:19:49.807Z,48
2023-03-18T09:24:49.636Z,47
2023-03-18T09:29:49.914Z,47
2023-03-18T09:34:49.588Z,47
2023-03-18T09:39:49.454Z,47
2023-03-18T09:44:53.722Z,47
2023-03-18T09:49:49.544Z,48
2023-03-18T09:54:52.961Z,48
2023-03-18T09:59:52.057Z,48
2023-03-18T10:04:49.789Z,47
2023-03-18T10:09:49.533Z,46
2023-03-18T10:14:49.460Z,45
2023-03-18T10:19:49.800Z,44
2023-03-18T10:24:49.396Z,43
2023-03-18T10:29:49.648Z,43
2023-03-18T10:34:49.452Z,42
2023-03-18T10:39:50.794Z,42
2023-03-18T10:44:49.532Z,42
2023-03-18T10:50:01.109Z,40
2023-03-18T10:54:49.447Z,39
2023-03-18T10:59:49.596Z,38
2023-03-18T11:04:49.472Z,38
2023-03-18T11:09:49.652Z,37
2023-03-18T11:14:49.480Z,36
2023-03-18T11:19:49.511Z,36
2023-03-18T11:24:49.334Z,36
2023-03-18T11:29:49.596Z,35
2023-03-18T11:34:49.450Z,35
2023-03-18T11:39:54.606Z,35
2023-03-18T11:44:49.639Z,33
2023-03-18T11:49:49.490Z,33
2023-03-18T11:54:49.436Z,32
2023-03-18T11:59:49.477Z,32
2023-03-18T12:05:00.447Z,31
2023-03-18T12:09:49.519Z,31
2023-03-18T12:14:49.438Z,30
2023-03-18T12:19:49.455Z,29
2023-03-18T12:24:49.424Z,29
2023-03-18T12:29:49.468Z,29
2023-03-18T12:34:49.461Z,29
2023-03-18T12:39:49.557Z,29
2023-03-18T12:44:55.749Z,28
2023-03-18T12:49:49.637Z,27
2023-03-18T12:54:53.453Z,26
2023-03-18T12:59:53.715Z,25
2023-03-18T13:04:54.965Z,24
2023-03-18T13:09:49.780Z,24
2023-03-18T13:14:49.202Z,23
2023-03-18T13:19:49.419Z,22
2023-03-18T13:24:49.395Z,22
2023-03-18T13:29:49.310Z,21
2023-03-18T13:34:49.471Z,20
2023-03-18T13:40:02.112Z,20
2023-03-18T13:44:49.377Z,20
2023-03-18T13:49:57.386Z,20
2023-03-18T13:54:49.427Z,19
2023-03-18T13:59:49.282Z,19
2023-03-18T14:04:49.457Z,19
2023-03-18T14:09:49.446Z,19
2023-03-18T14:14:49.457Z,19
2023-03-18T14:19:49.487Z,19
2023-03-18T14:24:49.662Z,18
2023-03-18T14:29:49.686Z,18
2023-03-18T14:34:53.092Z,18
2023-03-18T14:39:49.186Z,18
2023-03-18T14:44:51.826Z,17
2023-03-18T14:49:49.398Z,16
2023-03-18T14:54:49.298Z,16
2023-03-18T14:59:49.155Z,15
2023-03-18T15:04:49.404Z,15
2023-03-18T15:09:49.194Z,15
2023-03-18T15:14:49.303Z,14
2023-03-18T15:19:49.480Z,14
2023-03-18T15:24:49.249Z,14
2023-03-18T15:29:49.207Z,14
2023-03-18T15:34:49.344Z,14
2023-03-18T15:39:49.235Z,14
2023-03-18T15:44:53.529Z,14
2023-03-18T15:49:49.507Z,14
2023-03-18T15:54:49.354Z,14
2023-03-18T15:59:49.182Z,14
2023-03-18T16:04:49.210Z,13
2023-03-18T16:09:49.622Z,13
2023-03-18T16:14:49.177Z,13
2023-03-18T16:19:49.219Z,13
2023-03-18T16:24:49.410Z,13
2023-03-18T16:29:49.225Z,13
2023-03-18T16:34:49.321Z,13
2023-03-18T16:39:49.146Z,12
2023-03-18T16:44:49.299Z,12
2023-03-18T16:49:49.197Z,13
2023-03-18T16:54:49.425Z,13
2023-03-18T16:59:48.975Z,13
2023-03-18T17:04:49.159Z,12
2023-03-18T17:09:49.656Z,13
2023-03-18T17:14:50.693Z,13
2023-03-18T17:19:49.244Z,14
2023-03-18T17:24:49.062Z,14
2023-03-18T17:29:49.136Z,14
2023-03-18T17:39:49.426Z,13
2023-03-18T17:44:49.077Z,13
2023-03-18T17:49:49.798Z,14
2023-03-18T17:54:49.005Z,14
2023-03-18T17:59:49.177Z,14
2023-03-18T18:04:49.093Z,14
2023-03-18T18:09:49.227Z,15
2023-03-18T18:14:49.159Z,15
2023-03-18T18:19:49.386Z,15
2023-03-18T18:24:49.009Z,15
2023-03-18T18:29:49.179Z,14
2023-03-18T18:34:49.016Z,15
2023-03-18T18:39:49.261Z,14
2023-03-18T18:44:49.245Z,14
2023-03-18T18:49:49.205Z,14
2023-03-18T18:54:49.369Z,14
2023-03-18T18:59:49.613Z,14
2023-03-18T19:04:49.085Z,14
2023-03-18T19:09:49.252Z,15
2023-03-18T19:14:49.268Z,15
2023-03-18T19:19:49.314Z,15
2023-03-18T19:24:49.140Z,15
2023-03-18T19:29:48.948Z,15
2023-03-18T19:34:48.924Z,15
2023-03-18T19:39:49.256Z,15
2023-03-18T19:44:49.200Z,15
2023-03-18T19:49:49.149Z,16
2023-03-18T19:54:48.874Z,16
2023-03-18T19:59:49.057Z,16
2023-03-18T20:04:48.939Z,17
2023-03-18T20:09:49.081Z,17
2023-03-18T20:14:49.624Z,17
2023-03-18T20:19:48.956Z,17
2023-03-18T20:24:49.073Z,18
2023-03-18T20:29:48.893Z,18
2023-03-18T20:34:48.898Z,18
2023-03-18T20:39:49.000Z,18
2023-03-18T20:44:48.920Z,17
2023-03-18T20:49:49.095Z,17
2023-03-18T20:54:48.963Z,17
2023-03-18T20:59:49.195Z,16
2023-03-18T21:04:49.157Z,16
2023-03-18T21:09:49.167Z,15
2023-03-18T21:14:48.919Z,15
2023-03-18T21:19:49.092Z,14
2023-03-18T21:24:49.173Z,13
2023-03-18T21:29:49.979Z,13
2023-03-18T21:34:48.854Z,12
2023-03-18T21:39:49.146Z,12
2023-03-18T21:44:49.089Z,11
2023-03-18T21:49:48.941Z,11
2023-03-18T21:54:48.946Z,11
2023-03-18T21:59:48.894Z,10
2023-03-18T22:04:49.019Z,10
2023-03-18T22:09:48.974Z,10
2023-03-18T22:14:49.139Z,10
2023-03-18T22:19:49.045Z,10
2023-03-18T22:24:49.752Z,9
2023-03-18T22:29:49.294Z,9
2023-03-18T22:34:49.143Z,9
2023-03-18T22:39:48.843Z,10
2023-03-18T22:44:49.266Z,10
2023-03-18T22:49:48.939Z,10
2023-03-18T22:54:51.110Z,10
2023-03-18T22:59:49.082Z,10
2023-03-18T23:04:48.758Z,11
2023-03-18T23:09:56.445Z,11
2023-03-18T23:14:48.949Z,11
2023-03-18T23:19:49.620Z,11
2023-03-18T23:24:49.148Z,11
2023-03-18T23:29:48.995Z,11
2023-03-18T23:34:49.731Z,11
2023-03-18T23:39:48.877Z,11
2023-03-18T23:44:49.144Z,12
2023-03-18T23:49:49.087Z,12
2023-03-18T23:54:48.868Z,12
2023-03-18T23:59:49.143Z,12
